Time;durP1;ratioP1;P1;durP2;ratioP2;P2;SDS_P1;SDS_P2;PMS_P1;PMS_P2;Temp;Humidity;BMP_temperature;BMP_pressure;BME280_temperature;BME280_humidity;BME280_pressure;Samples;Min_cycle;Max_cycle;Signal;HPM_P1;HPM_P2
2023/09/13 00:00:04;;;;;;;35.35;24.02;;;;;;;18.10;100.00;101139.06;6243021;23;20043;-75
2023/09/13 00:02:29;;;;;;;35.35;24.98;;;;;;;18.10;100.00;101138.22;6242994;23;20000;-75
2023/09/13 00:04:56;;;;;;;35.65;22.90;;;;;;;18.11;100.00;101134.44;6243107;23;20011;-75
2023/09/13 00:07:22;;;;;;;36.08;23.58;;;;;;;18.12;100.00;101136.19;6243037;23;20004;-74
2023/09/13 00:09:47;;;;;;;32.97;22.35;;;;;;;18.13;100.00;101133.28;6243286;23;20011;-75
2023/09/13 00:12:12;;;;;;;38.55;25.90;;;;;;;18.14;100.00;101125.97;6242788;23;20004;-74
2023/09/13 00:14:38;;;;;;;36.00;25.25;;;;;;;18.14;100.00;101128.69;6242817;23;20012;-74
2023/09/13 00:17:03;;;;;;;36.88;24.70;;;;;;;18.14;100.00;101131.41;6214551;23;20300;-74
2023/09/13 00:19:30;;;;;;;36.85;24.45;;;;;;;18.13;100.00;101125.13;6242455;23;20513;-74
2023/09/13 00:21:55;;;;;;;37.80;24.73;;;;;;;18.12;100.00;101128.84;6216603;23;20000;-73
2023/09/13 00:24:21;;;;;;;34.38;24.25;;;;;;;18.13;100.00;101132.44;6216120;23;20024;-72
2023/09/13 00:26:46;;;;;;;39.45;25.05;;;;;;;18.13;100.00;101132.44;6243751;23;20004;-72
2023/09/13 00:29:11;;;;;;;35.95;24.88;;;;;;;18.12;100.00;101128.84;6216443;23;20012;-72
2023/09/13 00:31:37;;;;;;;37.97;25.50;;;;;;;18.12;100.00;101128.84;6244178;23;20083;-72
2023/09/13 00:34:02;;;;;;;35.97;24.27;;;;;;;18.11;100.00;101137.19;6243144;23;20000;-72
2023/09/13 00:36:27;;;;;;;38.00;25.52;;;;;;;18.12;100.00;101137.00;6217579;23;20031;-72
2023/09/13 00:38:53;;;;;;;37.28;25.38;;;;;;;18.12;100.00;101136.19;6242804;23;20000;-72
2023/09/13 00:41:18;;;;;;;36.20;25.58;;;;;;;18.12;100.00;101145.19;6217028;23;20004;-72
2023/09/13 00:43:44;;;;;;;38.00;26.15;;;;;;;18.12;100.00;101137.00;6242568;23;20114;-71
2023/09/13 00:46:10;;;;;;;37.42;25.48;;;;;;;18.14;100.00;101139.59;6243063;23;20004;-71
2023/09/13 00:48:35;;;;;;;35.67;26.67;;;;;;;18.10;100.00;101139.06;6243840;23;20004;-72
2023/09/13 00:51:03;;;;;;;38.38;25.92;;;;;;;18.12;100.00;101137.00;6243691;23;20058;-72
2023/09/13 00:53:30;;;;;;;37.58;26.80;;;;;;;18.12;100.00;101136.19;6244118;23;20079;-71
2023/09/13 00:55:56;;;;;;;40.40;27.83;;;;;;;18.11;100.00;101139.91;6217034;23;20058;-71
2023/09/13 00:58:22;;;;;;;41.53;29.25;;;;;;;18.13;100.00;101138.75;6243350;23;20384;-72
2023/09/13 01:00:49;;;;;;;43.20;28.83;;;;;;;18.13;100.00;101137.91;6243758;23;20000;-72
2023/09/13 01:03:16;;;;;;;40.55;28.08;;;;;;;18.15;100.00;101133.13;6216924;23;20007;-72
2023/09/13 01:05:41;;;;;;;44.42;30.38;;;;;;;18.14;100.00;101132.28;6244188;23;20007;-72
2023/09/13 01:08:07;;;;;;;42.08;28.15;;;;;;;18.15;100.00;101138.59;6243590;23;20011;-72
2023/09/13 01:10:33;;;;;;;42.90;28.85;;;;;;;18.12;100.00;101126.13;6243619;23;20008;-72
2023/09/13 01:12:58;;;;;;;43.60;29.05;;;;;;;18.13;100.00;101132.44;6216734;23;20008;-71
2023/09/13 01:15:28;;;;;;;44.35;28.08;;;;;;;18.12;100.00;101137.00;6215704;23;20053;-72
2023/09/13 01:18:13;;;;;;;40.85;29.00;;;;;;;18.12;100.00;101131.56;6242568;23;20007;-73
2023/09/13 01:21:00;;;;;;;41.88;29.23;;;;;;;18.10;100.00;101130.88;6243811;23;20014;-71
2023/09/13 01:23:35;;;;;;;43.90;29.83;;;;;;;18.09;100.00;101131.03;6211518;23;20052;-72
2023/09/13 01:26:34;;;;;;;42.35;26.83;;;;;;;18.09;100.00;101131.03;6213511;23;20012;-72
2023/09/13 01:29:00;;;;;;;41.95;29.45;;;;;;;18.05;100.00;101127.75;6213923;23;20001;-71
2023/09/13 01:31:27;;;;;;;44.50;31.77;;;;;;;18.03;100.00;101129.78;6211147;23;20096;-72
2023/09/13 01:33:53;;;;;;;48.42;30.98;;;;;;;18.02;100.00;101136.22;6210034;23;20004;-71
2023/09/13 01:36:19;;;;;;;42.08;30.73;;;;;;;18.00;100.00;101135.56;6212553;23;20075;-71
2023/09/13 01:38:45;;;;;;;43.40;30.80;;;;;;;17.98;100.00;101143.03;6211043;23;20055;-71
2023/09/13 01:41:27;;;;;;;43.67;33.35;;;;;;;17.97;100.00;101144.88;6212600;23;20012;-73
2023/09/13 01:43:54;;;;;;;49.05;34.05;;;;;;;17.95;100.00;101140.59;6212389;23;20027;-73
2023/09/13 01:46:27;;;;;;;47.17;33.40;;;;;;;17.94;100.00;101133.44;6213031;23;20008;-72
2023/09/13 01:48:56;;;;;;;49.05;35.05;;;;;;;17.93;100.00;101142.59;6213558;23;20054;-72
2023/09/13 01:51:25;;;;;;;;;;;;;;;17.98;100.00;101153.91;6211666;23;20004;-72
2023/09/13 01:53:51;;;;;;;48.05;34.53;;;;;;;17.92;100.00;101149.03;6211329;23;20219;-71
2023/09/13 01:56:21;;;;;;;48.45;34.28;;;;;;;17.89;100.00;101147.47;6212661;23;20059;-71
2023/09/13 01:58:49;;;;;;;52.08;34.85;;;;;;;17.88;100.00;101156.63;6212242;23;20139;-72
2023/09/13 02:01:15;;;;;;;50.35;35.63;;;;;;;17.88;100.00;101156.63;6211145;23;20439;-72
2023/09/13 02:03:41;;;;;;;53.65;37.80;;;;;;;17.86;100.00;101155.91;6211741;23;20009;-72
2023/09/13 02:06:07;;;;;;;55.90;40.50;;;;;;;17.85;100.00;101156.06;6210506;23;20004;-72
2023/09/13 02:08:32;;;;;;;53.78;37.90;;;;;;;17.82;100.00;101162.69;6212368;23;20012;-72
2023/09/13 02:10:57;;;;;;;59.38;39.33;;;;;;;17.81;100.00;101159.09;6210379;23;20068;-73
2023/09/13 02:13:23;;;;;;;53.50;37.40;;;;;;;17.82;100.00;101168.13;6210656;23;20005;-72
2023/09/13 02:15:48;;;;;;;57.65;39.15;;;;;;;17.80;100.00;101171.00;6212242;23;20009;-72
2023/09/13 02:18:13;;;;;;;55.35;37.90;;;;;;;17.81;100.00;101166.41;6212020;23;20001;-71
2023/09/13 02:20:38;;;;;;;52.47;37.67;;;;;;;17.81;100.00;101169.97;6212087;23;20406;-71
2023/09/13 02:23:04;;;;;;;56.78;41.60;;;;;;;17.81;100.00;101166.41;6213705;23;20004;-72
2023/09/13 02:25:34;;;;;;;55.88;39.22;;;;;;;17.80;100.00;101173.72;6241601;23;20008;-72
2023/09/13 02:27:59;;;;;;;62.65;44.10;;;;;;;17.80;100.00;101175.56;6216549;23;20109;-71
2023/09/13 02:30:25;;;;;;;62.25;43.90;;;;;;;17.80;100.00;101173.72;6242326;23;20631;-72
2023/09/13 02:32:50;;;;;;;61.58;43.97;;;;;;;17.80;100.00;101176.44;6215791;23;20014;-72
2023/09/13 02:35:15;;;;;;;62.40;42.83;;;;;;;17.81;100.00;101180.00;6215890;23;20000;-72
2023/09/13 02:37:41;;;;;;;60.78;43.08;;;;;;;17.82;100.00;101179.00;6242430;23;20075;-72
2023/09/13 02:40:06;;;;;;;63.83;44.15;;;;;;;17.84;100.00;101181.56;6242562;23;20008;-72
2023/09/13 02:42:32;;;;;;;70.15;44.90;;;;;;;17.86;100.00;101177.66;6215215;23;20046;-73
2023/09/13 02:44:58;;;;;;;64.35;45.45;;;;;;;17.85;100.00;101178.69;6240931;23;20015;-73
2023/09/13 02:47:23;;;;;;;63.35;42.58;;;;;;;17.85;100.00;101185.97;6213776;23;20011;-73
2023/09/13 02:49:48;;;;;;;62.10;46.03;;;;;;;17.81;100.00;101178.13;6241008;23;20015;-73
2023/09/13 02:52:14;;;;;;;64.85;43.70;;;;;;;17.81;100.00;101174.56;6214453;23;20458;-73
2023/09/13 02:54:39;;;;;;;60.05;43.28;;;;;;;17.80;100.00;101176.44;6240612;23;20495;-73
2023/09/13 02:57:07;;;;;;;61.83;42.17;;;;;;;17.80;100.00;101181.00;6241173;23;20004;-73
2023/09/13 02:59:32;;;;;;;57.53;39.90;;;;;;;17.77;100.00;101182.16;6214434;23;20011;-73
2023/09/13 03:01:57;;;;;;;57.67;39.80;;;;;;;17.75;100.00;101180.63;6240295;23;20008;-73
2023/09/13 03:04:23;;;;;;;59.03;40.17;;;;;;;17.72;100.00;101176.34;6213542;23;20276;-73
2023/09/13 03:06:48;;;;;;;60.40;39.05;;;;;;;17.72;100.00;101183.63;6241038;23;20004;-73
2023/09/13 03:09:13;;;;;;;62.67;41.05;;;;;;;17.72;100.00;101183.63;6240629;23;20007;-73
2023/09/13 03:11:39;;;;;;;57.40;40.58;;;;;;;17.70;100.00;101186.50;6241342;23;20007;-73
2023/09/13 03:14:05;;;;;;;60.22;42.13;;;;;;;17.71;100.00;101187.34;6240644;23;20042;-73
2023/09/13 03:16:30;;;;;;;59.08;40.08;;;;;;;17.70;100.00;101181.06;6241204;23;20000;-73
2023/09/13 03:18:57;;;;;;;55.75;39.03;;;;;;;17.71;100.00;101181.91;6214147;23;20407;-73
2023/09/13 03:21:23;;;;;;;62.47;40.28;;;;;;;17.70;100.00;101191.06;6214795;23;20011;-73
2023/09/13 03:23:49;;;;;;;57.50;39.35;;;;;;;17.67;100.00;101194.94;6242169;23;20434;-73
2023/09/13 03:26:23;;;;;;;58.83;39.53;;;;;;;17.67;100.00;101191.38;6242142;23;20039;-73
2023/09/13 03:28:50;;;;;;;64.00;42.67;;;;;;;17.64;100.00;101192.53;6216165;23;20048;-73
2023/09/13 03:31:18;;;;;;;58.83;42.38;;;;;;;17.63;100.00;101190.84;6243440;23;20004;-73
2023/09/13 03:33:44;;;;;;;60.17;40.33;;;;;;;17.65;100.00;101196.97;6243451;23;20031;-73
2023/09/13 03:36:11;;;;;;;60.65;41.17;;;;;;;17.64;100.00;101195.25;6243590;23;20000;-73
2023/09/13 03:38:38;;;;;;;59.25;42.08;;;;;;;17.64;100.00;101204.28;6243689;23;20000;-73
2023/09/13 03:41:08;;;;;;;60.92;40.63;;;;;;;17.65;100.00;101210.56;6243109;23;20425;-73
2023/09/13 03:43:33;;;;;;;62.22;40.25;;;;;;;17.67;100.00;101200.38;6243378;23;20016;-73
2023/09/13 03:45:59;;;;;;;62.60;41.97;;;;;;;17.68;100.00;101204.81;6216260;23;20011;-73
2023/09/13 03:48:24;;;;;;;62.58;42.47;;;;;;;17.69;100.00;101203.81;6243232;23;20079;-73
2023/09/13 03:50:50;;;;;;;63.10;42.08;;;;;;;17.69;100.00;101201.09;6216295;23;20062;-73
2023/09/13 03:53:15;;;;;;;68.07;41.47;;;;;;;17.70;100.00;101197.38;6242809;23;20011;-75
2023/09/13 03:55:41;;;;;;;63.50;41.42;;;;;;;17.71;100.00;101199.06;6243188;23;20067;-74
2023/09/13 03:58:07;;;;;;;75.47;44.47;;;;;;;17.71;100.00;101203.66;6216231;23;20000;-75
2023/09/13 04:00:35;;;;;;;60.60;39.85;;;;;;;17.70;100.00;101200.09;6216079;23;20456;-74
2023/09/13 04:03:00;;;;;;;56.50;38.75;;;;;;;17.71;100.00;101200.94;6243171;23;20004;-75
2023/09/13 04:05:25;;;;;;;56.97;40.70;;;;;;;17.71;100.00;101199.06;6214844;23;20337;-74
2023/09/13 04:07:50;;;;;;;59.55;40.63;;;;;;;17.71;100.00;101192.78;6214320;23;20073;-74
2023/09/13 04:10:16;;;;;;;57.92;40.95;;;;;;;17.71;100.00;101198.22;6215294;23;20008;-75
2023/09/13 04:12:41;;;;;;;69.57;40.65;;;;;;;17.71;100.00;101195.50;6215807;23;20000;-75
2023/09/13 04:15:07;;;;;;;59.90;40.33;;;;;;;17.71;100.00;101199.06;6242045;23;20011;-74
2023/09/13 04:17:32;;;;;;;59.88;39.58;;;;;;;17.70;100.00;101197.38;6242298;23;20004;-75
2023/09/13 04:19:58;;;;;;;61.35;39.78;;;;;;;17.71;100.00;101203.66;6242534;23;20008;-74
2023/09/13 04:22:23;;;;;;;60.50;38.13;;;;;;;17.69;100.00;101194.78;6242192;23;20046;-74
2023/09/13 04:24:48;;;;;;;60.90;38.53;;;;;;;17.68;100.00;101190.38;6215823;23;20397;-75
2023/09/13 04:27:20;;;;;;;57.42;36.78;;;;;;;17.68;100.00;101207.53;6215571;23;20079;-75
2023/09/13 04:29:46;;;;;;;58.25;38.30;;;;;;;17.68;100.00;101204.81;6241026;23;20003;-74
2023/09/13 04:32:11;;;;;;;57.35;38.50;;;;;;;17.67;100.00;101208.53;6214863;23;20095;-74
2023/09/13 04:34:37;;;;;;;53.97;37.13;;;;;;;17.69;100.00;101205.66;6242374;23;20094;-75
2023/09/13 04:37:04;;;;;;;57.25;38.40;;;;;;;17.68;100.00;101203.97;6241865;23;20000;-75
2023/09/13 04:39:31;;;;;;;52.78;34.88;;;;;;;17.68;100.00;101210.25;6215911;23;20004;-75
2023/09/13 04:41:58;;;;;;;55.22;36.42;;;;;;;17.69;100.00;101213.81;6242491;23;20004;-75
2023/09/13 04:44:23;;;;;;;58.40;38.85;;;;;;;17.69;100.00;101211.97;6242639;23;20008;-75
2023/09/13 04:46:49;;;;;;;55.60;36.80;;;;;;;17.70;100.00;101208.25;6214298;23;20322;-75
2023/09/13 04:49:14;;;;;;;55.95;35.90;;;;;;;17.71;100.00;101214.53;6241538;23;20008;-75
2023/09/13 04:51:39;;;;;;;53.58;36.45;;;;;;;17.71;100.00;101219.97;6242009;23;20004;-74
2023/09/13 04:54:05;;;;;;;55.88;35.78;;;;;;;17.70;100.00;101205.53;6215268;23;20423;-75
2023/09/13 04:56:30;;;;;;;55.65;35.92;;;;;;;17.71;100.00;101220.81;6243026;23;20007;-75
2023/09/13 04:58:56;;;;;;;55.25;37.10;;;;;;;17.71;100.00;101214.53;6242531;23;20075;-75
2023/09/13 05:01:21;;;;;;;53.13;36.47;;;;;;;17.71;100.00;101209.09;6242419;23;20311;-75
2023/09/13 05:03:47;;;;;;;54.60;35.63;;;;;;;17.69;100.00;101211.09;6220057;23;20020;-72
2023/09/13 05:06:13;;;;;;;48.92;33.40;;;;;;;17.67;100.00;101219.41;6245659;23;20450;-73
2023/09/13 05:08:38;;;;;;;56.45;36.53;;;;;;;17.70;100.00;101220.97;6246245;23;20004;-73
2023/09/13 05:11:04;;;;;;;56.67;35.35;;;;;;;17.68;100.00;101236.59;6245908;23;20111;-72
2023/09/13 05:13:31;;;;;;;54.30;35.55;;;;;;;17.69;100.00;101228.28;6219579;23;20050;-72
2023/09/13 05:15:56;;;;;;;51.63;34.60;;;;;;;17.68;100.00;101223.00;6245624;23;20075;-72
2023/09/13 05:18:21;;;;;;;52.60;34.50;;;;;;;17.68;100.00;101226.56;6246037;23;20035;-73
2023/09/13 05:20:47;;;;;;;52.50;37.35;;;;;;;17.66;100.00;101217.72;6246364;23;20338;-72
2023/09/13 05:23:12;;;;;;;49.58;34.78;;;;;;;17.64;100.00;101223.31;6246106;23;20011;-73
2023/09/13 05:25:48;;;;;;;53.05;34.90;;;;;;;17.60;100.00;101213.72;6246367;23;20113;-72
2023/09/13 05:28:17;;;;;;;56.15;33.55;;;;;;;17.60;100.00;101212.84;6245111;23;20312;-72
2023/09/13 05:30:46;;;;;;;51.80;35.05;;;;;;;17.58;100.00;101214.88;6246450;23;20011;-73
2023/09/13 05:33:11;;;;;;;;;;;;;;;17.62;100.00;101219.00;6244228;23;20006;-72
2023/09/13 05:35:37;;;;;;;56.15;33.70;;;;;;;17.56;100.00;101223.19;6246575;23;19924;-72
2023/09/13 05:38:03;;;;;;;55.50;37.38;;;;;;;17.55;100.00;101228.78;6245341;23;20000;-72
2023/09/13 05:40:29;;;;;;;54.05;33.63;;;;;;;17.56;100.00;101233.22;6241741;23;20000;-73
2023/09/13 05:42:56;;;;;;;54.90;34.30;;;;;;;17.57;100.00;101237.63;6241844;23;20028;-72
2023/09/13 05:45:23;;;;;;;55.35;34.05;;;;;;;17.59;100.00;101244.63;6215474;23;20004;-73
2023/09/13 05:47:48;;;;;;;53.60;36.05;;;;;;;17.61;100.00;101247.19;6216838;23;20333;-72
2023/09/13 05:50:14;;;;;;;53.78;36.03;;;;;;;17.61;100.00;101239.91;6245869;23;20000;-75
2023/09/13 05:52:40;;;;;;;54.60;35.53;;;;;;;17.63;100.00;101254.19;6244275;23;20000;-74
2023/09/13 05:55:06;;;;;;;49.00;32.85;;;;;;;17.64;100.00;101252.31;6244268;23;20330;-73
2023/09/13 05:57:32;;;;;;;47.42;32.15;;;;;;;17.65;100.00;101260.31;6242216;23;20000;-73
2023/09/13 05:59:57;;;;;;;51.88;32.70;;;;;;;17.67;100.00;101262.06;6242491;23;20018;-72
2023/09/13 06:02:22;;;;;;;48.75;32.05;;;;;;;17.68;100.00;101259.19;6242168;23;20022;-71
2023/09/13 06:04:48;;;;;;;51.30;34.55;;;;;;;17.69;100.00;101266.34;6214452;23;20055;-73
2023/09/13 06:07:13;;;;;;;50.30;31.90;;;;;;;17.69;100.00;101266.34;6242390;23;20075;-73
2023/09/13 06:09:38;;;;;;;52.85;33.15;;;;;;;17.68;100.00;101269.22;6241255;23;20079;-73
2023/09/13 06:12:04;;;;;;;49.78;32.85;;;;;;;17.67;100.00;101267.50;6241172;23;20008;-74
2023/09/13 06:14:31;;;;;;;50.17;32.72;;;;;;;17.67;100.00;101273.78;6242153;23;20000;-72
2023/09/13 06:16:57;;;;;;;46.67;32.03;;;;;;;17.68;100.00;101274.66;6214126;23;20069;-72
2023/09/13 06:19:22;;;;;;;51.13;32.65;;;;;;;17.69;100.00;101284.50;6241715;23;20000;-72
2023/09/13 06:21:47;;;;;;;49.28;31.88;;;;;;;17.70;100.00;101286.22;6214336;23;20095;-72
2023/09/13 06:24:13;;;;;;;46.33;32.78;;;;;;;17.70;100.00;101289.81;6213358;23;20068;-73
2023/09/13 06:26:38;;;;;;;46.58;31.58;;;;;;;17.71;100.00;101296.94;6214428;23;20008;-72
2023/09/13 06:29:05;;;;;;;52.55;30.83;;;;;;;17.73;100.00;101294.06;6213924;23;20015;-74
2023/09/13 06:31:31;;;;;;;48.03;31.30;;;;;;;17.73;100.00;101297.66;6213458;23;20007;-73
2023/09/13 06:33:56;;;;;;;47.10;30.25;;;;;;;17.75;100.00;101301.06;6241658;23;20004;-73
2023/09/13 06:36:21;;;;;;;49.80;29.60;;;;;;;17.77;100.00;101301.78;6213752;23;20460;-73
2023/09/13 06:38:47;;;;;;;44.08;30.80;;;;;;;17.79;100.00;101302.50;6241878;23;20004;-72
2023/09/13 06:41:12;;;;;;;48.53;30.10;;;;;;;17.80;100.00;101301.50;6212786;23;20019;-73
2023/09/13 06:43:38;;;;;;;42.15;26.98;;;;;;;17.78;100.00;101303.50;6242155;23;20031;-73
2023/09/13 06:46:04;;;;;;;41.90;26.92;;;;;;;17.79;100.00;101309.81;6239219;23;20127;-73
2023/09/13 06:48:29;;;;;;;43.72;28.05;;;;;;;17.80;100.00;101314.22;6212902;23;20000;-72
2023/09/13 06:50:55;;;;;;;39.75;27.77;;;;;;;17.82;100.00;101314.94;6240735;23;20382;-74
2023/09/13 06:53:20;;;;;;;45.60;29.90;;;;;;;17.82;100.00;101321.22;6240068;23;20031;-74
2023/09/13 06:55:45;;;;;;;44.88;28.65;;;;;;;17.84;100.00;101315.66;6213625;23;20384;-74
2023/09/13 06:58:11;;;;;;;43.40;30.08;;;;;;;17.87;100.00;101322.66;6215293;23;20004;-74
2023/09/13 07:00:36;;;;;;;49.63;30.17;;;;;;;17.89;100.00;101324.22;6241936;23;20422;-74
2023/09/13 07:03:04;;;;;;;43.58;30.00;;;;;;;17.91;100.00;101333.13;6242790;23;20430;-74
2023/09/13 07:05:29;;;;;;;51.17;33.00;;;;;;;17.92;100.00;101332.13;6242812;23;20010;-74
2023/09/13 07:07:54;;;;;;;45.83;29.10;;;;;;;17.94;100.00;101334.69;6215535;23;20032;-74
2023/09/13 07:10:20;;;;;;;50.28;33.65;;;;;;;17.94;100.00;101337.41;6215606;23;20031;-74
2023/09/13 07:12:46;;;;;;;47.47;30.95;;;;;;;17.96;100.00;101343.53;6242679;23;20000;-74
2023/09/13 07:15:11;;;;;;;47.00;30.95;;;;;;;17.98;100.00;101347.00;6242230;23;20338;-74
2023/09/13 07:17:36;;;;;;;47.80;31.05;;;;;;;17.98;100.00;101336.09;6242710;23;20030;-74
2023/09/13 07:20:04;;;;;;;49.60;32.38;;;;;;;18.02;100.00;101342.94;6242261;23;20055;-75
2023/09/13 07:22:30;;;;;;;48.40;31.15;;;;;;;18.03;100.00;101341.94;6242245;23;20004;-75
2023/09/13 07:24:55;;;;;;;52.20;31.33;;;;;;;18.05;100.00;101337.19;6242407;23;20517;-75
2023/09/13 07:27:21;;;;;;;49.35;33.53;;;;;;;18.07;100.00;101346.09;6242494;23;20005;-75
2023/09/13 07:29:47;;;;;;;47.03;31.02;;;;;;;18.11;100.00;101344.78;6241289;23;20465;-75
2023/09/13 07:32:13;;;;;;;50.63;33.58;;;;;;;18.16;100.00;101356.06;6215022;23;20015;-75
2023/09/13 07:34:38;;;;;;;44.42;29.20;;;;;;;18.19;100.00;101345.91;6243699;23;20008;-77
2023/09/13 07:37:04;;;;;;;48.38;30.98;;;;;;;18.20;100.00;101358.47;6240671;23;20004;-78
2023/09/13 07:39:29;;;;;;;48.80;30.45;;;;;;;18.18;100.00;101355.91;6242188;23;20000;-76
2023/09/13 07:41:54;;;;;;;49.55;29.58;;;;;;;18.17;100.00;101355.06;6215038;23;20070;-77
2023/09/13 07:44:20;;;;;;;43.53;29.88;;;;;;;18.16;100.00;101355.22;6242289;23;20456;-77
2023/09/13 07:46:45;;;;;;;48.03;31.88;;;;;;;18.16;100.00;101363.38;6242024;23;20472;-75
2023/09/13 07:49:10;;;;;;;48.58;29.42;;;;;;;18.15;100.00;101365.22;6242031;23;20434;-77
2023/09/13 07:51:36;;;;;;;45.55;28.85;;;;;;;18.15;100.00;101375.25;6242488;23;20015;-77
2023/09/13 07:54:04;;;;;;;36.10;22.67;;;;;;;18.13;100.00;101383.56;6242170;23;20032;-77
2023/09/13 07:56:31;;;;;;;31.08;14.43;;;;;;;18.05;100.00;101386.16;6242493;23;20008;-77
2023/09/13 07:58:56;;;;;;;21.85;9.25;;;;;;;17.99;100.00;101397.63;6215258;23;20011;-77
2023/09/13 08:01:22;;;;;;;18.88;5.93;;;;;;;17.96;100.00;101406.09;6215636;23;19996;-77
2023/09/13 08:03:47;;;;;;;17.08;5.28;;;;;;;17.91;100.00;101403.81;6215367;23;20079;-77
2023/09/13 08:06:12;;;;;;;15.40;4.55;;;;;;;17.91;100.00;101409.25;6214886;23;20370;-77
2023/09/13 08:08:38;;;;;;;13.57;3.85;;;;;;;17.90;100.00;101412.97;6215255;23;20008;-77
2023/09/13 08:11:03;;;;;;;9.02;3.33;;;;;;;17.90;100.00;101418.41;6215774;23;20027;-77
2023/09/13 08:13:28;;;;;;;11.02;3.60;;;;;;;17.88;100.00;101423.13;6242186;23;20000;-77
2023/09/13 08:15:54;;;;;;;7.68;2.47;;;;;;;17.88;100.00;101424.97;6242969;23;20000;-77
2023/09/13 08:18:20;;;;;;;5.32;2.28;;;;;;;17.87;100.00;101443.16;6243442;23;20066;-76
2023/09/13 08:20:45;;;;;;;4.00;2.00;;;;;;;17.80;100.00;101445.59;6243197;23;20603;-77
2023/09/13 08:23:10;;;;;;;8.32;2.42;;;;;;;17.80;100.00;101450.16;6215934;23;20053;-78
2023/09/13 08:25:36;;;;;;;5.35;2.38;;;;;;;17.72;100.00;101453.63;6243369;23;20000;-77
2023/09/13 08:28:01;;;;;;;6.15;2.33;;;;;;;17.70;100.00;101465.63;6216172;23;20031;-77
2023/09/13 08:30:27;;;;;;;3.75;2.05;;;;;;;17.70;100.00;101468.34;6242952;23;20008;-77
2023/09/13 08:32:52;;;;;;;5.05;2.30;;;;;;;17.66;100.00;101470.50;6217517;23;20032;-74
2023/09/13 08:35:17;;;;;;;3.97;2.08;;;;;;;17.64;100.00;101475.22;6243199;23;20003;-74
2023/09/13 08:37:42;;;;;;;5.60;2.30;;;;;;;17.63;100.00;101476.25;6243099;23;20000;-74
2023/09/13 08:40:09;;;;;;;5.70;2.15;;;;;;;17.61;100.00;101489.97;6243138;23;20008;-74
2023/09/13 08:42:35;;;;;;;7.32;2.40;;;;;;;17.58;100.00;101492.94;6243055;23;20085;-74
2023/09/13 08:45:01;;;;;;;8.48;2.22;;;;;;;17.55;100.00;101500.53;6215993;23;20043;-74
2023/09/13 08:47:28;;;;;;;3.53;1.80;;;;;;;17.49;100.00;101509.28;6215855;23;20083;-74
2023/09/13 08:49:57;;;;;;;6.30;1.88;;;;;;;17.46;100.00;101524.00;6243104;23;20004;-75
2023/09/13 08:52:24;;;;;;;4.65;2.30;;;;;;;17.43;100.00;101522.41;6216215;23;20012;-74
2023/09/13 08:54:52;;;;;;;4.85;2.00;;;;;;;17.46;100.00;101529.44;6243276;23;20011;-74
2023/09/13 08:57:18;;;;;;;5.88;1.92;;;;;;;17.49;100.00;101525.59;6215830;23;20466;-74
2023/09/13 08:59:44;;;;;;;5.28;2.00;;;;;;;17.53;100.00;101532.47;6242854;23;20079;-74
2023/09/13 09:02:15;;;;;;;6.35;1.98;;;;;;;17.57;100.00;101547.47;6215974;23;20097;-74
2023/09/13 09:04:41;;;;;;;4.35;1.90;;;;;;;17.61;100.00;101547.06;6216089;23;20385;-74
2023/09/13 09:07:07;;;;;;;7.22;2.50;;;;;;;17.63;100.00;101553.19;6242787;23;20005;-74
2023/09/13 09:09:33;;;;;;;6.35;1.63;;;;;;;17.65;100.00;101558.50;6215911;23;20004;-74
2023/09/13 09:12:02;;;;;;;5.00;1.77;;;;;;;17.67;100.00;101559.19;6215842;23;20030;-74
2023/09/13 09:14:33;;;;;;;3.13;1.70;;;;;;;17.72;100.00;101564.25;6242758;23;20043;-75
2023/09/13 09:17:00;;;;;;;4.40;1.90;;;;;;;17.69;100.00;101570.81;6215736;23;20346;-74
2023/09/13 09:19:26;;;;;;;3.45;1.48;;;;;;;17.67;100.00;101570.06;6242461;23;20000;-74
2023/09/13 09:21:52;;;;;;;5.72;1.98;;;;;;;17.65;100.00;101578.38;6215546;23;20035;-74
2023/09/13 09:24:17;;;;;;;5.60;1.90;;;;;;;17.63;100.00;101582.25;6215220;23;20008;-73
2023/09/13 09:26:44;;;;;;;5.78;1.55;;;;;;;17.62;100.00;101578.66;6215069;23;20012;-74
2023/09/13 09:29:12;;;;;;;5.25;1.83;;;;;;;17.58;100.00;101587.22;6242562;23;20473;-74
2023/09/13 09:31:41;;;;;;;5.00;1.85;;;;;;;17.58;100.00;101593.53;6242679;23;20353;-74
2023/09/13 09:34:09;;;;;;;8.60;2.10;;;;;;;17.58;100.00;101596.25;6242555;23;20058;-74
2023/09/13 09:36:41;;;;;;;7.43;1.85;;;;;;;17.60;100.00;101599.69;6242073;23;20058;-73
2023/09/13 09:39:07;;;;;;;8.18;2.22;;;;;;;17.61;100.00;101597.81;6241754;23;20078;-74
2023/09/13 09:41:35;;;;;;;5.82;2.00;;;;;;;17.63;100.00;101599.41;6241428;23;20004;-74
2023/09/13 09:44:00;;;;;;;4.53;1.80;;;;;;;17.71;100.00;101595.97;6215079;23;20430;-73
2023/09/13 09:46:25;;;;;;;6.43;2.00;;;;;;;17.77;100.00;101608.16;6241751;23;20007;-74
2023/09/13 09:48:54;;;;;;;9.65;2.58;;;;;;;17.76;100.00;101604.59;6242087;23;20039;-73
2023/09/13 09:51:20;;;;;;;6.70;2.13;;;;;;;17.79;100.00;101615.19;6241860;23;20000;-73
2023/09/13 09:53:46;;;;;;;4.22;2.00;;;;;;;17.79;100.00;101609.75;6214568;23;20000;-74
2023/09/13 09:56:12;;;;;;;6.50;2.00;;;;;;;17.87;100.00;101605.47;6215445;23;20102;-73
2023/09/13 09:58:37;;;;;;;6.32;2.53;;;;;;;17.94;100.00;101615.66;6214461;23;20000;-73
2023/09/13 10:01:03;;;;;;;4.65;2.00;;;;;;;18.00;100.00;101611.50;6242451;23;20011;-73
2023/09/13 10:03:33;;;;;;;6.75;2.20;;;;;;;18.01;100.00;101610.50;6242426;23;20004;-73
2023/09/13 10:06:09;;;;;;;9.65;2.25;;;;;;;18.04;100.00;101612.94;6242077;23;20008;-73
2023/09/13 10:08:38;;;;;;;6.88;2.15;;;;;;;18.07;100.00;101618.09;6215399;23;20012;-73
2023/09/13 10:11:03;;;;;;;4.22;2.38;;;;;;;18.12;100.00;101625.81;6241907;23;20000;-73
2023/09/13 10:13:32;;;;;;;5.05;2.40;;;;;;;18.20;100.00;101627.81;6215228;23;20054;-73
2023/09/13 10:15:59;;;;;;;7.60;2.13;;;;;;;18.23;100.00;101631.13;6242121;23;20004;-73
2023/09/13 10:18:26;;;;;;;6.72;2.63;;;;;;;18.27;100.00;101631.69;6242590;23;20031;-73
2023/09/13 10:20:56;;;;;;;10.05;2.80;;;;;;;18.27;100.00;101642.56;6215074;23;20090;-71
2023/09/13 10:23:27;;;;;;;5.78;2.45;;;;;;;18.30;100.00;101645.00;6214730;23;20394;-71
2023/09/13 10:25:54;;;;;;;5.43;2.22;;;;;;;18.36;100.00;101644.44;6242119;23;20065;-72
2023/09/13 10:28:23;;;;;;;7.63;2.38;;;;;;;18.42;100.00;101645.69;6241699;23;20008;-71
2023/09/13 10:30:50;;;;;;;5.63;2.40;;;;;;;18.45;100.00;101646.28;6241815;23;20430;-70
2023/09/13 10:33:18;;;;;;;5.68;2.28;;;;;;;18.50;100.00;101643.97;6241620;23;20055;-73
2023/09/13 10:35:45;;;;;;;6.97;2.72;;;;;;;18.48;100.00;101653.31;6242181;23;20438;-71
2023/09/13 10:38:24;;;;;;;5.28;2.40;;;;;;;18.58;100.00;101664.16;6214939;23;20000;-71
2023/09/13 10:41:03;;;;;;;6.70;2.40;;;;;;;18.65;100.00;101657.16;6242200;23;20004;-71
2023/09/13 10:43:29;;;;;;;6.13;2.78;;;;;;;18.70;100.00;101665.75;6241898;23;20035;-71
2023/09/13 10:45:56;;;;;;;8.23;2.63;;;;;;;18.68;100.00;101675.91;6214981;23;20008;-71
2023/09/13 10:48:22;;;;;;;5.82;2.05;;;;;;;18.69;100.00;101677.63;6242040;23;20004;-71
2023/09/13 10:50:49;;;;;;;7.13;2.35;;;;;;;18.66;100.00;101683.38;6241850;23;20513;-71
2023/09/13 10:53:15;;;;;;;5.75;2.25;;;;;;;18.64;100.00;101680.81;6241888;23;20026;-71
2023/09/13 10:55:40;;;;;;;10.10;2.58;;;;;;;18.58;100.00;101680.50;6242012;23;20004;-71
2023/09/13 10:58:09;;;;;;;6.80;2.40;;;;;;;18.59;100.00;101676.78;6241670;23;20307;-70
2023/09/13 11:00:37;;;;;;;4.40;2.40;;;;;;;18.58;100.00;101688.69;6215091;23;20004;-70
2023/09/13 11:03:04;;;;;;;7.22;2.05;;;;;;;18.58;100.00;101689.56;6215459;23;20096;-70